Time;durP1;ratioP1;P1;durP2;ratioP2;P2;SDS_P1;SDS_P2;PMS_P1;PMS_P2;Temp;Humidity;BMP_temperature;BMP_pressure;BME280_temperature;BME280_humidity;BME280_pressure;Samples;Min_cycle;Max_cycle;Signal;HPM_P1;HPM_P2
2022/08/25 00:00:19;;;;;;;6.90;6.40;;;;;;;-141.48;100.00;69781.59;5225656;28;20052;-65
2022/08/25 00:02:50;;;;;;;7.38;6.72;;;;;;;-141.48;100.00;69781.59;5224715;28;20554;-66
2022/08/25 00:05:21;;;;;;;6.32;5.90;;;;;;;-141.48;100.00;69781.59;5225042;28;20155;-66
2022/08/25 00:07:51;;;;;;;7.45;6.75;;;;;;;-141.48;100.00;69781.59;5207741;28;20104;-65
2022/08/25 00:10:21;;;;;;;5.88;5.47;;;;;;;-141.48;100.00;69781.59;5225755;28;20037;-65
2022/08/25 00:12:52;;;;;;;6.38;5.97;;;;;;;-141.48;100.00;69781.59;5225674;28;20502;-65
2022/08/25 00:15:23;;;;;;;6.47;6.07;;;;;;;-141.48;100.00;69781.59;5225228;28;20032;-65
2022/08/25 00:17:54;;;;;;;6.80;6.20;;;;;;;-141.48;100.00;69781.59;5206948;28;20028;-65
2022/08/25 00:20:25;;;;;;;7.68;7.18;;;;;;;-141.48;100.00;69781.59;5239719;22;20124;-80
2022/08/25 00:22:56;;;;;;;7.38;6.93;;;;;;;-141.48;100.00;69781.59;5226867;28;20020;-81
2022/08/25 00:25:27;;;;;;;9.57;8.77;;;;;;;-141.48;100.00;69781.59;5227507;28;20458;-80
2022/08/25 00:27:57;;;;;;;9.07;8.30;;;;;;;-141.48;100.00;69781.59;5211623;28;20096;-80
2022/08/25 00:30:28;;;;;;;7.80;7.20;;;;;;;-141.48;100.00;69781.59;5229410;28;20138;-80
2022/08/25 00:33:43;;;;;;;8.55;6.85;;;;;;;-141.48;100.00;69781.59;5210692;28;20052;-80
2022/08/25 00:36:14;;;;;;;8.27;7.47;;;;;;;-141.48;100.00;69781.59;5227102;28;20028;-81
2022/08/25 00:38:46;;;;;;;8.98;8.48;;;;;;;-141.48;100.00;69781.59;5226974;28;20431;-81
2022/08/25 00:41:21;;;;;;;6.57;6.20;;;;;;;-141.48;100.00;69781.59;5227167;28;20040;-80
2022/08/25 00:43:54;;;;;;;8.13;7.55;;;;;;;-141.48;100.00;69781.59;5226051;28;20082;-80
2022/08/25 00:46:30;;;;;;;8.43;7.72;;;;;;;-141.48;100.00;69781.59;5227223;28;20500;-80
2022/08/25 00:49:23;;;;;;;8.52;7.60;;;;;;;-141.48;100.00;69781.59;5226597;28;20023;-82
2022/08/25 00:51:54;;;;;;;7.97;7.38;;;;;;;-141.48;100.00;69781.59;5225953;28;20253;-81
2022/08/25 00:54:29;;;;;;;8.13;7.43;;;;;;;-141.48;100.00;69781.59;5225458;28;20025;-80
2022/08/25 01:00:38;;;;;;;7.38;6.75;;;;;;;-141.48;100.00;69781.59;5267452;22;20048;-91
2022/08/25 01:03:09;;;;;;;9.27;8.38;;;;;;;-141.48;100.00;69781.59;5223562;28;20791;-90
2022/08/25 01:05:42;;;;;;;8.50;7.90;;;;;;;-141.48;100.00;69781.59;5228772;28;20052;-90
2022/08/25 01:08:14;;;;;;;7.28;6.70;;;;;;;-141.48;100.00;69781.59;5231397;28;20052;-90
2022/08/25 01:10:45;;;;;;;8.50;7.90;;;;;;;-141.48;100.00;69781.59;5228775;28;20093;-90
2022/08/25 01:13:22;;;;;;;7.43;6.90;;;;;;;-141.48;100.00;69781.59;5228641;28;20089;-91
2022/08/25 01:15:55;;;;;;;10.07;6.38;;;;;;;-141.48;100.00;69781.59;5228633;28;20024;-91
2022/08/25 01:18:27;;;;;;;8.07;7.20;;;;;;;-141.48;100.00;69781.59;5228377;28;20048;-90
2022/08/25 01:20:58;;;;;;;9.43;8.82;;;;;;;-141.48;100.00;69781.59;5228072;28;20025;-90
2022/08/25 01:23:29;;;;;;;6.90;6.40;;;;;;;-141.48;100.00;69781.59;5210663;28;20085;-90
2022/08/25 01:26:14;;;;;;;8.40;7.90;;;;;;;-141.48;100.00;69781.59;5227755;28;20113;-90
2022/08/25 01:31:36;;;;;;;7.18;6.57;;;;;;;-141.48;100.00;69781.59;5228092;28;20434;-90
2022/08/25 01:34:08;;;;;;;7.85;7.30;;;;;;;-141.48;100.00;69781.59;5209780;28;20491;-90
2022/08/25 01:36:42;;;;;;;7.55;7.05;;;;;;;-141.48;100.00;69781.59;5210149;28;20021;-89
2022/08/25 01:39:13;;;;;;;7.40;6.97;;;;;;;-141.48;100.00;69781.59;5210450;28;20048;-90
2022/08/25 01:42:03;;;;;;;9.40;8.05;;;;;;;-141.48;100.00;69781.59;5228082;28;20089;-90
2022/08/25 01:44:35;;;;;;;;;;;;;;;-141.48;100.00;69781.59;5210038;28;20179;-90
2022/08/25 01:47:06;;;;;;;9.10;8.20;;;;;;;-141.48;100.00;69781.59;5209545;28;19913;-90
2022/08/25 01:49:36;;;;;;;9.02;8.43;;;;;;;-141.48;100.00;69781.59;5227717;28;20025;-90
2022/08/25 01:52:15;;;;;;;7.47;6.95;;;;;;;-141.48;100.00;69781.59;5209502;28;20351;-90
2022/08/25 01:54:46;;;;;;;7.57;6.97;;;;;;;-141.48;100.00;69781.59;5227584;28;20050;-91
2022/08/25 01:57:16;;;;;;;12.10;7.53;;;;;;;-141.48;100.00;69781.59;5230788;28;20052;-89
2022/08/25 01:59:47;;;;;;;9.57;8.13;;;;;;;-141.48;100.00;69781.59;5208964;28;20053;-89
2022/08/25 02:02:17;;;;;;;10.43;7.97;;;;;;;-141.48;100.00;69781.59;5209352;28;20028;-89
2022/08/25 02:04:48;;;;;;;10.40;9.43;;;;;;;-141.48;100.00;69781.59;5209236;28;20067;-88
2022/08/25 02:07:19;;;;;;;9.20;8.48;;;;;;;-141.48;100.00;69781.59;5227593;28;20363;-89
2022/08/25 02:09:49;;;;;;;8.77;7.40;;;;;;;-141.48;100.00;69781.59;5227768;28;20448;-89
2022/08/25 02:12:19;;;;;;;9.52;8.23;;;;;;;-141.48;100.00;69781.59;5213206;28;20335;-90
2022/08/25 02:14:50;;;;;;;9.15;8.45;;;;;;;-141.48;100.00;69781.59;5226877;28;20055;-91
2022/08/25 02:17:20;;;;;;;8.25;7.47;;;;;;;-141.48;100.00;69781.59;5227601;28;20043;-90
2022/08/25 02:19:51;;;;;;;9.02;8.18;;;;;;;-141.48;100.00;69781.59;5226769;28;20037;-90
2022/08/25 02:22:22;;;;;;;8.13;7.63;;;;;;;-141.48;100.00;69781.59;5227133;28;20056;-91
2022/08/25 02:24:53;;;;;;;8.15;7.72;;;;;;;-141.48;100.00;69781.59;5208899;28;20146;-90
2022/08/25 02:27:23;;;;;;;9.95;9.13;;;;;;;-141.48;100.00;69781.59;5227389;28;20029;-89
2022/08/25 02:29:53;;;;;;;8.07;7.57;;;;;;;-141.48;100.00;69781.59;5227608;28;20033;-90
2022/08/25 02:32:24;;;;;;;9.18;8.30;;;;;;;-141.48;100.00;69781.59;5209299;28;20032;-90
2022/08/25 02:34:54;;;;;;;8.80;8.10;;;;;;;-141.48;100.00;69781.59;5227302;28;20333;-91
2022/08/25 02:37:25;;;;;;;9.00;8.43;;;;;;;-141.48;100.00;69781.59;5209972;28;20463;-90
2022/08/25 02:39:55;;;;;;;8.38;7.75;;;;;;;-141.48;100.00;69781.59;5227279;28;20041;-91
2022/08/25 02:42:26;;;;;;;8.82;8.32;;;;;;;-141.48;100.00;69781.59;5211182;28;20048;-90
2022/08/25 02:44:56;;;;;;;9.85;8.85;;;;;;;-141.48;100.00;69781.59;5212926;28;20071;-91
2022/08/25 02:47:26;;;;;;;7.47;6.97;;;;;;;-141.48;100.00;69781.59;5213622;28;20029;-91
2022/08/25 02:49:57;;;;;;;9.50;8.70;;;;;;;-141.48;100.00;69781.59;5212783;28;20029;-91
2022/08/25 02:52:27;;;;;;;8.20;7.68;;;;;;;-141.48;100.00;69781.59;5231042;28;20029;-90
2022/08/25 02:54:58;;;;;;;7.65;6.90;;;;;;;-141.48;100.00;69781.59;5212863;28;20391;-91
2022/08/25 02:57:28;;;;;;;8.02;7.63;;;;;;;-141.48;100.00;69781.59;5212175;28;20204;-91
2022/08/25 02:59:59;;;;;;;10.98;7.88;;;;;;;-141.48;100.00;69781.59;5230703;28;20025;-91
2022/08/25 03:02:29;;;;;;;8.30;7.63;;;;;;;-141.48;100.00;69781.59;5212857;28;20025;-91
2022/08/25 03:05:00;;;;;;;8.45;6.55;;;;;;;-141.48;100.00;69781.59;5230657;28;20024;-90
2022/08/25 03:07:30;;;;;;;7.50;7.10;;;;;;;-141.48;100.00;69781.59;5230505;28;20029;-91
2022/08/25 03:10:08;;;;;;;9.32;8.18;;;;;;;-141.48;100.00;69781.59;5230429;28;20025;-91
2022/08/25 03:12:40;;;;;;;7.57;7.18;;;;;;;-141.48;100.00;69781.59;5212696;28;20029;-91
2022/08/25 03:15:15;;;;;;;12.43;8.40;;;;;;;-141.48;100.00;69781.59;5230611;28;20344;-90
2022/08/25 03:17:48;;;;;;;9.45;8.27;;;;;;;-141.48;100.00;69781.59;5212946;28;20047;-91
2022/08/25 03:20:20;;;;;;;8.00;7.35;;;;;;;-141.48;100.00;69781.59;5214721;28;20036;-91
2022/08/25 03:22:51;;;;;;;9.13;8.10;;;;;;;-141.48;100.00;69781.59;5231067;28;20090;-90
2022/08/25 03:28:10;;;;;;;10.07;9.15;;;;;;;-141.48;100.00;69781.59;5233782;28;20041;-90
2022/08/25 03:30:41;;;;;;;8.93;7.93;;;;;;;-141.48;100.00;69781.59;5231118;28;20021;-90
2022/08/25 03:33:12;;;;;;;7.82;7.32;;;;;;;-141.48;100.00;69781.59;5232312;28;20024;-91
2022/08/25 03:35:42;;;;;;;7.70;7.07;;;;;;;-141.48;100.00;69781.59;5237657;28;20009;-90
2022/08/25 03:38:12;;;;;;;6.88;6.47;;;;;;;-141.48;100.00;69781.59;5227808;28;20021;-91
2022/08/25 03:40:43;;;;;;;7.63;7.15;;;;;;;-141.48;100.00;69781.59;5235172;28;20025;-90
2022/08/25 03:43:13;;;;;;;11.63;9.40;;;;;;;-141.48;100.00;69781.59;5215882;28;20088;-90
2022/08/25 03:45:45;;;;;;;10.32;9.65;;;;;;;-141.48;100.00;69781.59;5237412;28;20031;-90
2022/08/25 03:48:16;;;;;;;8.43;7.55;;;;;;;-141.48;100.00;69781.59;5234427;28;20021;-89
2022/08/25 03:50:49;;;;;;;9.38;8.73;;;;;;;-141.48;100.00;69781.59;5213865;28;20051;-90
2022/08/25 03:53:20;;;;;;;8.18;7.68;;;;;;;-141.48;100.00;69781.59;5230932;28;20117;-90
2022/08/25 03:55:50;;;;;;;7.82;7.18;;;;;;;-141.48;100.00;69781.59;5231444;28;20028;-90
2022/08/25 03:58:20;;;;;;;8.00;7.43;;;;;;;-141.48;100.00;69781.59;5212984;28;20590;-90
2022/08/25 04:00:51;;;;;;;8.00;7.60;;;;;;;-141.48;100.00;69781.59;5231446;28;20036;-90
2022/08/25 04:03:21;;;;;;;7.43;7.03;;;;;;;-141.48;100.00;69781.59;5213169;28;20025;-90
2022/08/25 04:05:52;;;;;;;10.27;8.45;;;;;;;-141.48;100.00;69781.59;5231891;28;20052;-90
2022/08/25 04:08:22;;;;;;;8.68;7.97;;;;;;;-141.48;100.00;69781.59;5231229;28;20047;-90
2022/08/25 04:10:54;;;;;;;8.32;7.72;;;;;;;-141.48;100.00;69781.59;5212129;28;20052;-89
2022/08/25 04:13:24;;;;;;;7.70;7.25;;;;;;;-141.48;100.00;69781.59;5212889;28;20117;-90
2022/08/25 04:15:54;;;;;;;8.38;7.65;;;;;;;-141.48;100.00;69781.59;5211299;28;20053;-90
2022/08/25 04:18:25;;;;;;;7.38;6.82;;;;;;;-141.48;100.00;69781.59;5212584;28;20067;-90
2022/08/25 04:21:07;;;;;;;8.77;7.05;;;;;;;-141.48;100.00;69781.59;5235816;28;20032;-89
2022/08/25 04:23:41;;;;;;;8.32;7.13;;;;;;;-141.48;100.00;69781.59;5242155;28;20073;-89
2022/08/25 04:26:20;;;;;;;7.22;6.28;;;;;;;-141.48;100.00;69781.59;5223312;28;20395;-90
2022/08/25 04:28:51;;;;;;;7.25;6.75;;;;;;;-141.48;100.00;69781.59;5220983;28;20017;-90
2022/08/25 04:31:22;;;;;;;6.35;5.95;;;;;;;-141.48;100.00;69781.59;5217021;28;20105;-90
2022/08/25 04:33:52;;;;;;;8.20;7.53;;;;;;;-141.48;100.00;69781.59;5229748;28;20036;-91
2022/08/25 04:36:23;;;;;;;7.30;6.75;;;;;;;-141.48;100.00;69781.59;5229211;28;20031;-90
2022/08/25 04:38:54;;;;;;;6.97;6.38;;;;;;;-141.48;100.00;69781.59;5229126;28;20417;-90
2022/08/25 04:41:24;;;;;;;6.15;5.85;;;;;;;-141.48;100.00;69781.59;5210607;28;20029;-90
2022/08/25 04:43:58;;;;;;;8.10;5.75;;;;;;;-141.48;100.00;69781.59;5229277;28;20036;-90
2022/08/25 04:46:31;;;;;;;5.88;5.50;;;;;;;-141.48;100.00;69781.59;5211540;28;20459;-90
2022/08/25 04:49:03;;;;;;;7.10;6.57;;;;;;;-141.48;100.00;69781.59;5219928;28;20032;-90
2022/08/25 04:51:38;;;;;;;9.43;5.05;;;;;;;-141.48;100.00;69781.59;5243863;28;20565;-90
2022/08/25 04:54:12;;;;;;;6.22;5.85;;;;;;;-141.48;100.00;69781.59;5227966;28;20047;-90
2022/08/25 04:56:44;;;;;;;5.20;4.20;;;;;;;-141.48;100.00;69781.59;5245454;28;20032;-89
2022/08/25 04:59:15;;;;;;;7.22;6.63;;;;;;;-141.48;100.00;69781.59;5225822;28;20035;-90
2022/08/25 05:01:46;;;;;;;7.05;6.05;;;;;;;-141.48;100.00;69781.59;5212836;28;20033;-89
2022/08/25 05:04:20;;;;;;;5.53;5.18;;;;;;;-141.48;100.00;69781.59;5229143;28;20055;-90
2022/08/25 05:06:50;;;;;;;5.28;4.97;;;;;;;-141.48;100.00;69781.59;5211715;28;20475;-90
2022/08/25 05:09:21;;;;;;;6.15;5.63;;;;;;;-141.48;100.00;69781.59;5228814;28;20105;-90
2022/08/25 05:11:54;;;;;;;8.25;5.65;;;;;;;-141.48;100.00;69781.59;5229836;28;20552;-91
2022/08/25 05:14:24;;;;;;;5.55;5.25;;;;;;;-141.48;100.00;69781.59;5211354;28;20020;-90
2022/08/25 05:16:55;;;;;;;5.72;5.30;;;;;;;-141.48;100.00;69781.59;5229220;28;20083;-90
2022/08/25 05:19:26;;;;;;;12.95;5.75;;;;;;;-141.48;100.00;69781.59;5210118;28;20032;-90
2022/08/25 05:21:56;;;;;;;7.80;7.15;;;;;;;-141.48;100.00;69781.59;5209829;28;20017;-90
2022/08/25 05:24:28;;;;;;;7.32;6.80;;;;;;;-141.48;100.00;69781.59;5209235;28;20612;-90
2022/08/25 05:26:58;;;;;;;6.25;5.82;;;;;;;-141.48;100.00;69781.59;5209013;28;20060;-89
2022/08/25 05:29:29;;;;;;;6.35;5.75;;;;;;;-141.48;100.00;69781.59;5210415;28;20545;-90
2022/08/25 05:31:59;;;;;;;8.25;6.07;;;;;;;-141.48;100.00;69781.59;5210708;28;20028;-90
2022/08/25 05:34:29;;;;;;;5.13;4.70;;;;;;;-141.48;100.00;69781.59;5210457;28;20025;-90
2022/08/25 05:37:02;;;;;;;6.07;5.68;;;;;;;-141.48;100.00;69781.59;5210286;28;20029;-90
2022/08/25 05:39:32;;;;;;;6.95;5.82;;;;;;;-141.48;100.00;69781.59;5210322;28;20028;-89
2022/08/25 05:42:03;;;;;;;8.27;5.68;;;;;;;-141.48;100.00;69781.59;5229059;28;20431;-90
2022/08/25 05:44:33;;;;;;;5.63;5.32;;;;;;;-141.48;100.00;69781.59;5228800;28;20017;-90
2022/08/25 05:47:04;;;;;;;7.35;5.70;;;;;;;-141.48;100.00;69781.59;5211243;28;20665;-90
2022/08/25 05:49:34;;;;;;;7.15;5.53;;;;;;;-141.48;100.00;69781.59;5214140;28;20021;-90
2022/08/25 05:52:05;;;;;;;6.45;5.65;;;;;;;-141.48;100.00;69781.59;5230090;28;20028;-90
2022/08/25 05:54:35;;;;;;;11.05;6.68;;;;;;;-141.48;100.00;69781.59;5212740;28;20043;-91
2022/08/25 05:57:06;;;;;;;8.63;5.18;;;;;;;-141.48;100.00;69781.59;5213369;28;20058;-90
2022/08/25 05:59:36;;;;;;;6.13;5.78;;;;;;;-141.48;100.00;69781.59;5211607;28;20079;-90
2022/08/25 06:04:57;;;;;;;10.05;5.78;;;;;;;-141.48;100.00;69781.59;5230676;28;20040;-91
2022/08/25 06:07:28;;;;;;;7.82;7.30;;;;;;;-141.48;100.00;69781.59;5231339;28;20463;-91
2022/08/25 06:09:58;;;;;;;5.72;5.32;;;;;;;-141.48;100.00;69781.59;5214023;28;20103;-91
2022/08/25 06:12:31;;;;;;;9.35;6.38;;;;;;;-141.48;100.00;69781.59;5228876;28;20029;-90
2022/08/25 06:15:03;;;;;;;6.80;6.30;;;;;;;-141.48;100.00;69781.59;5219455;28;20398;-91
2022/08/25 06:17:39;;;;;;;9.10;7.07;;;;;;;-141.48;100.00;69781.59;5214416;28;20147;-92
2022/08/25 06:20:16;;;;;;;7.32;6.72;;;;;;;-141.48;100.00;69781.59;5237427;22;20045;-66
2022/08/25 06:22:47;;;;;;;6.28;5.78;;;;;;;-141.48;100.00;69781.59;5227279;28;20468;-66
2022/08/25 06:25:22;;;;;;;9.27;7.22;;;;;;;-141.48;100.00;69781.59;5225956;28;20113;-68
2022/08/25 06:27:54;;;;;;;6.57;5.82;;;;;;;-141.48;100.00;69781.59;5227553;28;20021;-66
2022/08/25 06:30:24;;;;;;;9.65;7.43;;;;;;;-141.48;100.00;69781.59;5228865;28;20025;-65
2022/08/25 06:32:55;;;;;;;6.90;5.80;;;;;;;-141.48;100.00;69781.59;5210510;28;20432;-66
2022/08/25 06:35:26;;;;;;;6.03;5.22;;;;;;;-141.48;100.00;69781.59;5224490;28;20021;-67
2022/08/25 06:37:57;;;;;;;6.30;5.28;;;;;;;-141.48;100.00;69781.59;5210280;28;20286;-66
2022/08/25 06:40:27;;;;;;;6.30;5.90;;;;;;;-141.48;100.00;69781.59;5227997;28;20044;-66
2022/08/25 06:42:58;;;;;;;7.10;6.60;;;;;;;-141.48;100.00;69781.59;5210148;28;20084;-66
2022/08/25 06:45:29;;;;;;;8.63;5.78;;;;;;;-141.48;100.00;69781.59;5227113;28;20469;-66
2022/08/25 06:48:00;;;;;;;11.27;7.68;;;;;;;-141.48;100.00;69781.59;5227748;28;20021;-67
2022/08/25 06:50:30;;;;;;;8.55;6.25;;;;;;;-141.48;100.00;69781.59;5210643;28;20052;-68
2022/08/25 06:53:01;;;;;;;6.88;6.38;;;;;;;-141.48;100.00;69781.59;5228329;28;20103;-67
2022/08/25 06:55:33;;;;;;;6.90;6.38;;;;;;;-141.48;100.00;69781.59;5226952;28;20151;-67
2022/08/25 06:58:04;;;;;;;6.63;6.05;;;;;;;-141.48;100.00;69781.59;5227019;28;20029;-67
2022/08/25 07:00:35;;;;;;;8.02;7.22;;;;;;;-141.48;100.00;69781.59;5227241;28;20476;-68
2022/08/25 07:03:05;;;;;;;6.82;6.18;;;;;;;-141.48;100.00;69781.59;5226848;28;20104;-67
2022/08/25 07:05:35;;;;;;;10.63;5.93;;;;;;;-141.48;100.00;69781.59;5225323;28;20021;-67
2022/08/25 07:08:06;;;;;;;9.25;5.45;;;;;;;-141.48;100.00;69781.59;5226703;28;20510;-67
2022/08/25 07:10:36;;;;;;;4.30;4.03;;;;;;;-141.48;100.00;69781.59;5226460;28;20029;-67
2022/08/25 07:13:06;;;;;;;4.25;3.95;;;;;;;-141.48;100.00;69781.59;5226624;28;20019;-68
2022/08/25 07:15:38;;;;;;;8.05;7.25;;;;;;;-141.48;100.00;69781.59;5207746;28;20028;-67
2022/08/25 07:18:10;;;;;;;5.05;4.63;;;;;;;-141.48;100.00;69781.59;5226332;28;20024;-68
2022/08/25 07:20:41;;;;;;;13.15;4.95;;;;;;;-141.48;100.00;69781.59;5226167;28;20064;-67
2022/08/25 07:23:12;;;;;;;4.20;3.88;;;;;;;-141.48;100.00;69781.59;5226252;28;20044;-67
2022/08/25 07:25:42;;;;;;;5.20;4.72;;;;;;;-141.48;100.00;69781.59;5225599;28;20523;-69
2022/08/25 07:28:15;;;;;;;4.30;4.07;;;;;;;-141.48;100.00;69781.59;5225328;28;20029;-67
2022/08/25 07:30:45;;;;;;;10.70;4.43;;;;;;;-141.48;100.00;69781.59;5207904;28;20025;-68
2022/08/25 07:33:16;;;;;;;5.18;4.72;;;;;;;-141.48;100.00;69781.59;5226000;28;20036;-67
2022/08/25 07:35:46;;;;;;;5.25;4.20;;;;;;;-141.48;100.00;69781.59;5226741;28;20029;-67
2022/08/25 07:38:17;;;;;;;4.78;4.28;;;;;;;-141.48;100.00;69781.59;5227124;28;20442;-67
2022/08/25 07:40:53;;;;;;;5.00;4.70;;;;;;;-141.48;100.00;69781.59;5225723;28;20037;-68
2022/08/25 07:43:23;;;;;;;5.70;4.60;;;;;;;-141.48;100.00;69781.59;5207043;28;20075;-67
2022/08/25 07:45:54;;;;;;;3.58;3.38;;;;;;;-141.48;100.00;69781.59;5225406;28;20469;-68
2022/08/25 07:48:25;;;;;;;4.55;4.32;;;;;;;-141.48;100.00;69781.59;5225511;28;20233;-68
2022/08/25 07:50:55;;;;;;;7.93;4.28;;;;;;;-141.48;100.00;69781.59;5225720;28;20107;-68
2022/08/25 07:53:25;;;;;;;5.15;4.65;;;;;;;-141.48;100.00;69781.59;5224764;28;20469;-68
2022/08/25 07:55:56;;;;;;;3.58;3.38;;;;;;;-141.48;100.00;69781.59;5207420;28;20036;-68
2022/08/25 07:58:26;;;;;;;4.78;4.47;;;;;;;-141.48;100.00;69781.59;5224901;28;20024;-68
2022/08/25 08:00:57;;;;;;;4.18;3.83;;;;;;;-141.48;100.00;69781.59;5225360;28;20036;-68
2022/08/25 08:03:28;;;;;;;8.32;5.90;;;;;;;-141.48;100.00;69781.59;5224453;28;20031;-66
2022/08/25 08:06:08;;;;;;;14.52;4.45;;;;;;;-141.48;100.00;69781.59;5225397;28;20032;-65
2022/08/25 08:08:43;;;;;;;4.70;4.32;;;;;;;-141.48;100.00;69781.59;5225224;28;20114;-66
2022/08/25 08:11:24;;;;;;;5.43;4.95;;;;;;;-141.48;100.00;69781.59;5225505;28;20036;-66
2022/08/25 08:13:56;;;;;;;5.10;4.60;;;;;;;-141.48;100.00;69781.59;5206600;28;20047;-67
2022/08/25 08:16:29;;;;;;;4.97;4.53;;;;;;;-141.48;100.00;69781.59;5206486;28;20029;-67
2022/08/25 08:18:59;;;;;;;5.07;4.45;;;;;;;-141.48;100.00;69781.59;5225320;28;20385;-68
2022/08/25 08:21:32;;;;;;;7.20;5.43;;;;;;;-141.48;100.00;69781.59;5206857;28;20067;-67
2022/08/25 08:24:03;;;;;;;4.93;4.45;;;;;;;-141.48;100.00;69781.59;5222273;28;20045;-67
2022/08/25 08:26:34;;;;;;;15.48;5.22;;;;;;;-141.48;100.00;69781.59;5223840;28;20090;-67
2022/08/25 08:29:04;;;;;;;6.13;4.15;;;;;;;-141.48;100.00;69781.59;5224910;28;20024;-67
2022/08/25 08:31:34;;;;;;;6.65;4.63;;;;;;;-141.48;100.00;69781.59;5224616;28;20328;-68
2022/08/25 08:34:05;;;;;;;4.90;4.60;;;;;;;-141.48;100.00;69781.59;5222567;28;20021;-68
2022/08/25 08:36:36;;;;;;;3.92;3.53;;;;;;;-141.48;100.00;69781.59;5224476;28;20027;-68
2022/08/25 08:39:07;;;;;;;6.10;5.53;;;;;;;-141.48;100.00;69781.59;5222900;28;20379;-69
2022/08/25 08:42:18;;;;;;;6.05;4.03;;;;;;;-141.48;100.00;69781.59;5205355;28;20021;-68
2022/08/25 08:45:04;;;;;;;5.00;4.60;;;;;;;-141.48;100.00;69781.59;5223490;28;20082;-69
2022/08/25 08:48:01;;;;;;;3.78;3.58;;;;;;;-141.48;100.00;69781.59;5205690;28;20340;-67
2022/08/25 08:50:44;;;;;;;7.40;3.85;;;;;;;-141.48;100.00;69781.59;5206419;28;20021;-66
2022/08/25 08:53:26;;;;;;;4.07;3.85;;;;;;;-141.48;100.00;69781.59;5223706;28;20388;-69
2022/08/25 08:56:14;;;;;;;3.42;3.13;;;;;;;-141.48;100.00;69781.59;5205335;28;20404;-69
2022/08/25 08:58:56;;;;;;;7.23;5.30;;;;;;;-141.48;100.00;69781.59;5223811;28;20052;-69
2022/08/25 09:01:33;;;;;;;8.65;4.50;;;;;;;-141.48;100.00;69781.59;5223704;28;20057;-69
2022/08/25 09:04:09;;;;;;;5.30;5.00;;;;;;;-141.48;100.00;69781.59;5223067;28;20040;-69
2022/08/25 09:06:46;;;;;;;5.70;3.95;;;;;;;-141.48;100.00;69781.59;5223793;28;20056;-69
2022/08/25 09:09:27;;;;;;;3.40;3.20;;;;;;;-141.48;100.00;69781.59;5205725;28;20218;-69
2022/08/25 09:12:06;;;;;;;12.85;3.42;;;;;;;-141.48;100.00;69781.59;5223685;28;20048;-68
2022/08/25 09:14:55;;;;;;;4.60;4.20;;;;;;;-141.48;100.00;69781.59;5222514;28;20036;-66
2022/08/25 09:17:41;;;;;;;;;;;;;;;-141.48;100.00;69781.59;5223315;28;20424;-67
2022/08/25 09:20:42;;;;;;;8.02;5.10;;;;;;;-141.48;100.00;69781.59;5223465;28;19966;-66
2022/08/25 09:23:41;;;;;;;3.70;3.40;;;;;;;-141.48;100.00;69781.59;5223485;28;20025;-67
2022/08/25 09:26:29;;;;;;;6.13;4.85;;;;;;;-141.48;100.00;69781.59;5202722;28;20036;-67
2022/08/25 09:29:14;;;;;;;7.93;4.15;;;;;;;-141.48;100.00;69781.59;5223167;28;20025;-67
2022/08/25 09:31:47;;;;;;;3.28;2.97;;;;;;;-141.48;100.00;69781.59;5204820;28;20129;-67
2022/08/25 09:34:26;;;;;;;3.38;3.20;;;;;;;-141.48;100.00;69781.59;5222993;28;20025;-66
2022/08/25 09:36:57;;;;;;;3.83;3.63;;;;;;;-141.48;100.00;69781.59;5205435;28;20025;-67
2022/08/25 09:39:28;;;;;;;6.75;3.58;;;;;;;-141.48;100.00;69781.59;5222186;28;20025;-67
2022/08/25 09:41:59;;;;;;;3.90;3.60;;;;;;;-141.48;100.00;69781.59;5222856;28;20439;-67
2022/08/25 09:44:31;;;;;;;2.95;2.83;;;;;;;-141.48;100.00;69781.59;5222346;28;20424;-67
2022/08/25 09:47:17;;;;;;;4.53;2.92;;;;;;;-141.48;100.00;69781.59;5223002;28;20029;-67
2022/08/25 09:49:59;;;;;;;3.47;3.28;;;;;;;-141.48;100.00;69781.59;5223316;28;20086;-67
2022/08/25 09:52:32;;;;;;;3.70;2.50;;;;;;;-141.48;100.00;69781.59;5227576;28;20046;-67
2022/08/25 09:55:12;;;;;;;3.55;3.30;;;;;;;-141.48;100.00;69781.59;5226796;28;20384;-67
2022/08/25 09:57:42;;;;;;;2.15;2.05;;;;;;;-141.48;100.00;69781.59;5227760;28;20056;-67
2022/08/25 10:00:17;;;;;;;3.15;2.95;;;;;;;-141.48;100.00;69781.59;5227194;28;20064;-67
2022/08/25 10:03:19;;;;;;;3.42;3.22;;;;;;;-141.48;100.00;69781.59;5227557;28;20033;-67
2022/08/25 10:06:11;;;;;;;3.25;2.97;;;;;;;-141.48;100.00;69781.59;5225995;28;20504;-67
2022/08/25 10:08:44;;;;;;;3.45;3.25;;;;;;;-141.48;100.00;69781.59;5225506;28;20024;-67
2022/08/25 10:11:32;;;;;;;5.32;3.25;;;;;;;-141.48;100.00;69781.59;5227485;28;20096;-67
2022/08/25 10:14:16;;;;;;;3.03;2.90;;;;;;;-141.48;100.00;69781.59;5227073;28;20099;-67
2022/08/25 10:16:47;;;;;;;3.35;3.13;;;;;;;-141.48;100.00;69781.59;5209339;28;20025;-67
2022/08/25 10:19:20;;;;;;;7.88;4.03;;;;;;;-141.48;100.00;69781.59;5226562;28;20488;-66
2022/08/25 10:22:02;;;;;;;3.17;3.03;;;;;;;-141.48;100.00;69781.59;5227590;28;20040;-67
2022/08/25 10:24:33;;;;;;;3.08;2.92;;;;;;;-141.48;100.00;69781.59;5227065;28;20107;-66
2022/08/25 10:27:31;;;;;;;10.98;4.07;;;;;;;-141.48;100.00;69781.59;5227357;28;20029;-67
2022/08/25 10:30:31;;;;;;;3.22;2.72;;;;;;;-141.48;100.00;69781.59;5227585;28;20028;-67
2022/08/25 10:33:18;;;;;;;3.63;3.38;;;;;;;-141.48;100.00;69781.59;5223633;28;20112;-67
2022/08/25 10:36:02;;;;;;;4.55;3.55;;;;;;;-141.48;100.00;69781.59;5208773;28;20067;-67
2022/08/25 10:38:44;;;;;;;5.93;3.58;;;;;;;-141.48;100.00;69781.59;5226802;28;20530;-67
2022/08/25 10:41:29;;;;;;;5.22;3.65;;;;;;;-141.48;100.00;69781.59;5225973;28;20044;-68
2022/08/25 10:47:09;;;;;;;4.18;2.85;;;;;;;-141.48;100.00;69781.59;5206275;28;20521;-67
2022/08/25 10:49:46;;;;;;;4.22;3.58;;;;;;;-141.48;100.00;69781.59;5205653;28;20068;-67
2022/08/25 10:52:27;;;;;;;5.00;3.05;;;;;;;-141.48;100.00;69781.59;5205791;28;20026;-68
2022/08/25 10:54:59;;;;;;;5.47;3.80;;;;;;;-141.48;100.00;69781.59;5205009;28;20021;-67
2022/08/25 10:57:43;;;;;;;3.75;3.55;;;;;;;-141.48;100.00;69781.59;5205818;28;20550;-67
2022/08/25 11:00:18;;;;;;;3.78;3.00;;;;;;;-141.48;100.00;69781.59;5205582;28;20112;-68
2022/08/25 11:03:21;;;;;;;3.25;3.15;;;;;;;-141.48;100.00;69781.59;5187399;28;20033;-67
2022/08/25 11:05:54;;;;;;;3.60;3.40;;;;;;;-141.48;100.00;69781.59;5205692;28;20025;-67
2022/08/25 11:08:36;;;;;;;3.47;3.17;;;;;;;-141.48;100.00;69781.59;5205711;28;20021;-67
2022/08/25 11:11:20;;;;;;;4.80;2.42;;;;;;;-141.48;100.00;69781.59;5205213;28;20025;-68
2022/08/25 11:14:24;;;;;;;2.22;2.13;;;;;;;-141.48;100.00;69781.59;5187784;28;20109;-67
2022/08/25 11:17:00;;;;;;;2.35;2.25;;;;;;;-141.48;100.00;69781.59;5200186;28;20155;-67
2022/08/25 11:19:36;;;;;;;6.85;3.03;;;;;;;-141.48;100.00;69781.59;5204979;28;20033;-68
2022/08/25 11:22:08;;;;;;;3.92;3.55;;;;;;;-141.48;100.00;69781.59;5205156;28;20413;-68
2022/08/25 11:24:42;;;;;;;6.35;3.05;;;;;;;-141.48;100.00;69781.59;5186900;28;20029;-68
2022/08/25 11:27:19;;;;;;;2.83;2.63;;;;;;;-141.48;100.00;69781.59;5187510;28;20053;-67
2022/08/25 11:30:11;;;;;;;7.13;2.72;;;;;;;-141.48;100.00;69781.59;5205014;28;20064;-68
2022/08/25 11:32:46;;;;;;;2.60;2.40;;;;;;;-141.48;100.00;69781.59;5205041;28;20060;-68
2022/08/25 11:35:26;;;;;;;3.88;2.80;;;;;;;-141.48;100.00;69781.59;5204365;28;20541;-68
2022/08/25 11:38:30;;;;;;;28.15;4.53;;;;;;;-141.48;100.00;69781.59;5187169;28;20028;-68
2022/08/25 11:41:05;;;;;;;5.20;3.17;;;;;;;-141.48;100.00;69781.59;5204531;28;20033;-68
2022/08/25 11:43:36;;;;;;;4.00;2.30;;;;;;;-141.48;100.00;69781.59;5204277;28;20508;-68
2022/08/25 11:46:24;;;;;;;2.63;2.53;;;;;;;-141.48;100.00;69781.59;5204886;28;20029;-68
2022/08/25 11:48:59;;;;;;;;;;;;;;;-141.48;100.00;69781.59;5204775;28;20029;-67
2022/08/25 11:51:33;;;;;;;3.58;2.15;;;;;;;-141.48;100.00;69781.59;5204648;28;19909;-67
2022/08/25 11:54:13;;;;;;;3.47;3.15;;;;;;;-141.48;100.00;69781.59;5203659;28;20033;-68
2022/08/25 11:56:54;;;;;;;3.03;2.83;;;;;;;-141.48;100.00;69781.59;5204612;28;20038;-68